Time;durP1;ratioP1;P1;durP2;ratioP2;P2;SDS_P1;SDS_P2;PMS_P1;PMS_P2;Temp;Humidity;BMP_temperature;BMP_pressure;BME280_temperature;BME280_humidity;BME280_pressure;Samples;Min_cycle;Max_cycle;Signal;HPM_P1;HPM_P2
2022/06/28 00:00:13;;;;;;;43.35;33.33;;;;;;;12.31;100.00;163783.84;4992445;28;20038;-60
2022/06/28 00:02:39;;;;;;;40.97;34.38;;;;;;;12.28;100.00;163775.72;5005893;28;20130;-60
2022/06/28 00:05:05;;;;;;;43.28;33.13;;;;;;;12.25;100.00;163766.25;5011553;28;20042;-60
2022/06/28 00:07:30;;;;;;;32.63;27.67;;;;;;;12.21;100.00;163756.78;5013518;28;20117;-60
2022/06/28 00:09:56;;;;;;;29.45;26.42;;;;;;;12.16;100.00;163743.31;5011604;28;20014;-60
2022/06/28 00:12:21;;;;;;;31.45;26.55;;;;;;;12.08;100.00;163721.69;5002254;28;20478;-60
2022/06/28 00:17:31;;;;;;;36.22;27.75;;;;;;;12.01;100.00;163704.09;4994242;28;20633;-60
2022/06/28 00:19:56;;;;;;;46.17;32.65;;;;;;;12.06;100.00;163718.97;4992261;28;20038;-60
2022/06/28 00:22:21;;;;;;;45.15;34.25;;;;;;;12.12;100.00;163732.47;5002356;28;20422;-60
2022/06/28 00:24:47;;;;;;;43.17;34.55;;;;;;;12.12;100.00;163732.47;5011607;28;20156;-60
2022/06/28 00:27:12;;;;;;;41.95;33.75;;;;;;;12.13;100.00;163736.56;5012742;28;20552;-60
2022/06/28 00:29:38;;;;;;;46.83;37.42;;;;;;;12.11;100.00;163731.13;5011384;28;20022;-60
2022/06/28 00:32:04;;;;;;;47.17;37.28;;;;;;;12.13;100.00;163735.16;5000542;28;20041;-60
2022/06/28 00:34:29;;;;;;;46.33;37.60;;;;;;;12.13;100.00;163735.16;4993366;28;20429;-60
2022/06/28 00:36:55;;;;;;;37.45;33.53;;;;;;;12.20;100.00;163754.09;5000298;28;20141;-60
2022/06/28 00:39:20;;;;;;;40.08;33.42;;;;;;;12.18;100.00;163750.03;5012583;28;20032;-60
2022/06/28 00:41:46;;;;;;;40.63;34.22;;;;;;;12.17;100.00;163746.00;5002737;28;20096;-60
2022/06/28 00:44:12;;;;;;;46.33;36.92;;;;;;;12.11;100.00;163729.75;4992817;28;20466;-60
2022/06/28 00:46:37;;;;;;;39.67;32.67;;;;;;;12.11;100.00;163729.75;4991749;28;20046;-60
2022/06/28 00:49:04;;;;;;;37.55;33.60;;;;;;;12.08;100.00;163723.00;5009172;28;20045;-60
2022/06/28 00:51:29;;;;;;;49.97;36.83;;;;;;;12.08;100.00;163723.00;5004964;28;20050;-60
2022/06/28 00:53:55;;;;;;;58.42;35.63;;;;;;;12.10;100.00;163727.09;4991329;28;20078;-59
2022/06/28 00:56:21;;;;;;;39.20;30.00;;;;;;;12.08;100.00;163721.69;4994933;28;20117;-59
2022/06/28 00:58:47;;;;;;;38.30;31.80;;;;;;;12.02;100.00;163708.19;5012788;28;20465;-60
2022/06/28 01:01:12;;;;;;;42.45;34.17;;;;;;;11.98;100.00;163697.34;5005978;28;20084;-59
2022/06/28 01:03:38;;;;;;;37.10;32.63;;;;;;;11.96;100.00;163691.88;4996538;28;20018;-59
2022/06/28 01:06:03;;;;;;;46.45;35.03;;;;;;;11.93;100.00;163683.81;5007510;28;20042;-59
2022/06/28 01:08:29;;;;;;;36.83;31.02;;;;;;;11.89;100.00;163672.97;4991737;28;20038;-60
2022/06/28 01:10:54;;;;;;;38.60;30.20;;;;;;;11.87;100.00;163667.59;4991696;28;20046;-61
2022/06/28 01:13:20;;;;;;;35.85;29.77;;;;;;;11.84;100.00;163659.47;5012690;28;20030;-60
2022/06/28 01:15:45;;;;;;;41.63;30.95;;;;;;;11.81;100.00;163652.72;5000916;28;20394;-60
2022/06/28 01:18:12;;;;;;;38.30;29.70;;;;;;;11.80;100.00;163648.69;5011929;28;20465;-60
2022/06/28 01:20:39;;;;;;;53.22;38.08;;;;;;;11.77;100.00;163640.56;5010802;28;20042;-61
2022/06/28 01:23:05;;;;;;;42.30;34.53;;;;;;;11.82;100.00;163654.06;4993608;28;20042;-60
2022/06/28 01:25:31;;;;;;;43.58;35.42;;;;;;;11.89;100.00;163672.97;4990973;28;20065;-60
2022/06/28 01:27:56;;;;;;;52.17;37.28;;;;;;;11.91;100.00;163678.38;4992554;28;20046;-60
2022/06/28 01:30:22;;;;;;;44.88;37.15;;;;;;;11.92;100.00;163681.09;5008615;28;20038;-60
2022/06/28 01:32:48;;;;;;;49.88;36.58;;;;;;;11.91;100.00;163679.72;4996000;28;20106;-61
2022/06/28 01:35:13;;;;;;;46.00;36.50;;;;;;;11.93;100.00;163683.81;4990985;28;20125;-60
2022/06/28 01:37:39;;;;;;;47.38;37.22;;;;;;;11.97;100.00;163694.63;4992373;28;20030;-60
2022/06/28 01:40:06;;;;;;;41.25;33.33;;;;;;;11.93;100.00;163683.81;4990607;28;20042;-60
2022/06/28 01:42:31;;;;;;;46.75;35.78;;;;;;;11.94;100.00;163686.50;5000524;28;20028;-60
2022/06/28 01:44:58;;;;;;;45.33;37.13;;;;;;;11.95;100.00;163689.16;4992726;28;20039;-60
2022/06/28 01:47:28;;;;;;;63.60;40.25;;;;;;;11.93;100.00;163683.81;4991996;28;20030;-60
2022/06/28 01:49:53;;;;;;;44.78;34.45;;;;;;;11.90;100.00;163677.06;4990499;28;20037;-60
2022/06/28 01:52:19;;;;;;;50.05;39.70;;;;;;;11.88;100.00;163670.25;5003578;28;20033;-60
2022/06/28 01:54:45;;;;;;;48.00;38.17;;;;;;;11.91;100.00;163678.38;5010117;28;20385;-60
2022/06/28 01:57:11;;;;;;;46.45;35.03;;;;;;;11.95;100.00;163687.84;5011477;28;20030;-60
2022/06/28 01:59:37;;;;;;;43.22;37.97;;;;;;;11.96;100.00;163691.88;4992038;28;20038;-60
2022/06/28 02:02:03;;;;;;;44.03;35.63;;;;;;;11.97;100.00;163693.31;4999029;28;20510;-60
2022/06/28 02:04:29;;;;;;;41.88;36.17;;;;;;;11.99;100.00;163700.06;5011337;28;20034;-60
2022/06/28 02:06:55;;;;;;;45.70;35.55;;;;;;;11.96;100.00;163691.88;5009955;28;20497;-60
2022/06/28 02:09:21;;;;;;;51.17;35.90;;;;;;;11.97;100.00;163693.31;4997206;28;20110;-60
2022/06/28 02:11:47;;;;;;;41.08;35.30;;;;;;;11.91;100.00;163678.38;5017145;28;20044;-60
2022/06/28 02:14:12;;;;;;;41.05;31.73;;;;;;;11.88;100.00;163671.63;5014380;28;20112;-60
2022/06/28 02:16:38;;;;;;;37.00;32.33;;;;;;;11.79;100.00;163645.97;5019945;28;20034;-60
2022/06/28 02:19:03;;;;;;;36.13;30.55;;;;;;;11.77;100.00;163640.56;5018899;28;20052;-63
2022/06/28 02:21:37;;;;;;;35.28;28.83;;;;;;;11.72;100.00;163629.78;5018565;28;20047;-61
2022/06/28 02:24:04;;;;;;;40.33;33.78;;;;;;;11.67;100.00;163614.91;5021155;28;20025;-61
2022/06/28 02:26:32;;;;;;;37.97;31.52;;;;;;;11.64;100.00;163608.16;5013098;28;20289;-61
2022/06/28 02:29:00;;;;;;;37.83;32.30;;;;;;;11.66;100.00;163613.53;5010754;28;20183;-61
2022/06/28 02:31:26;;;;;;;40.60;33.55;;;;;;;11.64;100.00;163608.16;5005586;28;20446;-60
2022/06/28 02:33:51;;;;;;;39.25;31.40;;;;;;;11.63;100.00;163605.47;4992492;28;20029;-59
2022/06/28 02:41:41;;;;;;;33.42;25.13;;;;;;;11.38;100.00;163539.28;4995444;28;20038;-60
2022/06/28 02:44:06;;;;;;;34.95;30.35;;;;;;;11.35;100.00;163531.16;4991149;28;20442;-59
2022/06/28 02:46:31;;;;;;;35.88;29.48;;;;;;;11.29;100.00;163514.97;4999900;28;20065;-59
2022/06/28 02:48:57;;;;;;;529.28;40.80;;;;;;;11.24;100.00;163504.13;5003859;28;20026;-59
2022/06/28 02:51:22;;;;;;;458.10;31.02;;;;;;;11.13;100.00;163474.44;4989721;28;20133;-59
2022/06/28 02:53:49;;;;;;;29.25;20.65;;;;;;;10.95;100.00;163427.19;4991438;28;20409;-60
2022/06/28 02:56:14;;;;;;;20.50;18.42;;;;;;;10.84;100.00;163398.84;4989513;28;20073;-59
2022/06/28 02:58:39;;;;;;;302.95;29.15;;;;;;;10.78;100.00;163384.00;4995166;28;20033;-59
2022/06/28 03:01:05;;;;;;;106.85;22.60;;;;;;;10.70;100.00;163362.38;5008728;28;20061;-59
2022/06/28 03:03:30;;;;;;;112.50;21.98;;;;;;;10.69;100.00;163359.66;4992820;28;20049;-59
2022/06/28 03:05:55;;;;;;;130.38;24.67;;;;;;;10.63;100.00;163343.50;4989550;28;20034;-59
2022/06/28 03:08:21;;;;;;;159.27;23.50;;;;;;;10.59;100.00;163332.72;4992093;28;20027;-59
2022/06/28 03:10:46;;;;;;;279.52;27.60;;;;;;;10.59;100.00;163332.72;5009276;28;20119;-60
2022/06/28 03:13:11;;;;;;;47.08;26.17;;;;;;;10.59;100.00;163334.03;5010227;28;20132;-59
2022/06/28 03:15:37;;;;;;;35.88;28.92;;;;;;;10.63;100.00;163343.50;5007290;28;20034;-60
2022/06/28 03:18:02;;;;;;;153.90;31.80;;;;;;;10.63;100.00;163344.88;5014382;28;20021;-59
2022/06/28 03:20:28;;;;;;;135.05;28.95;;;;;;;10.69;100.00;163359.66;5013514;28;20045;-59
2022/06/28 03:22:54;;;;;;;434.73;51.92;;;;;;;10.73;100.00;163370.50;5013155;28;20025;-59
2022/06/28 03:25:19;;;;;;;159.95;36.10;;;;;;;10.79;100.00;163385.38;4995174;28;20045;-59
2022/06/28 03:27:44;;;;;;;94.13;34.88;;;;;;;10.82;100.00;163393.44;4994784;28;20042;-59
2022/06/28 03:30:10;;;;;;;70.15;32.28;;;;;;;10.86;100.00;163402.88;5003050;28;20141;-59
2022/06/28 03:32:35;;;;;;;83.75;33.53;;;;;;;10.88;100.00;163408.28;5000141;28;20026;-61
2022/06/28 03:35:01;;;;;;;38.42;23.73;;;;;;;10.86;100.00;163402.88;5003814;28;20041;-61
2022/06/28 03:37:26;;;;;;;36.25;22.80;;;;;;;10.77;100.00;163381.28;5012447;28;20045;-61
2022/06/28 03:39:52;;;;;;;39.17;24.08;;;;;;;10.76;100.00;163378.56;5012632;28;20032;-61
2022/06/28 03:42:17;;;;;;;28.67;22.63;;;;;;;10.75;100.00;163374.53;5014010;28;20034;-61
2022/06/28 03:44:42;;;;;;;27.65;23.98;;;;;;;10.69;100.00;163359.66;4994004;28;20030;-61
2022/06/28 03:47:08;;;;;;;34.15;30.23;;;;;;;10.75;100.00;163375.91;4995317;28;20026;-61
2022/06/28 03:49:33;;;;;;;26.88;23.33;;;;;;;10.76;100.00;163378.56;4994691;28;20521;-61
2022/06/28 03:51:58;;;;;;;29.00;25.90;;;;;;;10.73;100.00;163370.50;5000473;28;20066;-61
2022/06/28 03:54:25;;;;;;;18.27;14.75;;;;;;;10.78;100.00;163384.00;5014102;28;20040;-61
2022/06/28 03:56:50;;;;;;;27.55;24.35;;;;;;;10.71;100.00;163363.75;5010922;28;20057;-61
2022/06/28 03:59:16;;;;;;;31.40;26.45;;;;;;;10.72;100.00;163367.78;5013154;28;20041;-62
2022/06/28 04:01:41;;;;;;;29.13;24.30;;;;;;;10.75;100.00;163374.53;5012412;28;20537;-61
2022/06/28 04:04:06;;;;;;;35.95;28.58;;;;;;;10.83;100.00;163394.81;5013495;28;20022;-61
2022/06/28 04:06:32;;;;;;;34.97;26.90;;;;;;;10.85;100.00;163400.19;4994838;28;20035;-61
2022/06/28 04:08:57;;;;;;;44.08;31.92;;;;;;;10.90;100.00;163413.72;4994156;28;20037;-60
2022/06/28 04:11:22;;;;;;;49.40;37.80;;;;;;;10.92;100.00;163420.47;4992542;28;20038;-60
2022/06/28 04:13:53;;;;;;;57.08;39.10;;;;;;;11.02;100.00;163446.09;5001878;28;20473;-59
2022/06/28 04:16:22;;;;;;;59.17;42.80;;;;;;;11.11;100.00;163469.03;4993770;28;20046;-59
2022/06/28 04:18:49;;;;;;;59.70;42.83;;;;;;;11.22;100.00;163498.75;5009793;28;20036;-59
2022/06/28 04:21:17;;;;;;;52.78;41.83;;;;;;;11.32;100.00;163524.41;5002690;28;20046;-59
2022/06/28 04:23:43;;;;;;;57.47;43.47;;;;;;;11.38;100.00;163540.63;4999860;28;20440;-59
2022/06/28 04:26:08;;;;;;;49.35;41.33;;;;;;;11.47;100.00;163562.22;4993315;28;20038;-59
2022/06/28 04:28:34;;;;;;;56.45;40.35;;;;;;;11.55;100.00;163583.84;5001554;28;20477;-59
2022/06/28 04:31:00;;;;;;;59.17;41.42;;;;;;;11.60;100.00;163597.31;5002288;28;20049;-59
2022/06/28 04:33:26;;;;;;;53.38;43.38;;;;;;;11.65;100.00;163610.88;5009022;28;20046;-59
2022/06/28 04:35:51;;;;;;;49.92;41.50;;;;;;;11.77;100.00;163640.56;5008078;28;20072;-59
2022/06/28 04:38:17;;;;;;;59.97;46.72;;;;;;;11.84;100.00;163659.47;5011696;28;20026;-59
2022/06/28 04:40:42;;;;;;;51.13;38.55;;;;;;;11.94;100.00;163685.13;5008945;28;20119;-59
2022/06/28 04:43:08;;;;;;;49.00;38.58;;;;;;;12.04;100.00;163712.22;5008638;28;20104;-59
2022/06/28 04:45:34;;;;;;;44.92;39.40;;;;;;;12.13;100.00;163735.16;5011283;28;20071;-59
2022/06/28 04:47:59;;;;;;;47.80;37.72;;;;;;;12.22;100.00;163759.50;5013094;28;20104;-59
2022/06/28 04:50:24;;;;;;;50.47;39.15;;;;;;;12.27;100.00;163773.00;5011597;28;20065;-58
2022/06/28 04:52:50;;;;;;;53.65;37.50;;;;;;;12.37;100.00;163800.03;5013111;28;20025;-58
2022/06/28 04:55:16;;;;;;;45.35;38.30;;;;;;;12.46;100.00;163823.00;5011316;28;20121;-59
2022/06/28 04:57:42;;;;;;;47.30;40.40;;;;;;;12.52;100.00;163837.88;5012886;28;20026;-59
2022/06/28 05:00:08;;;;;;;54.45;37.30;;;;;;;12.60;100.00;163858.13;5011129;28;20049;-58
2022/06/28 05:02:36;;;;;;;48.42;37.25;;;;;;;12.63;100.00;163867.59;5012960;28;20025;-59
2022/06/28 05:05:02;;;;;;;53.50;39.95;;;;;;;12.72;100.00;163889.22;5010676;28;20034;-59
2022/06/28 05:07:27;;;;;;;39.58;34.33;;;;;;;12.72;100.00;163890.59;5010971;28;20029;-59
2022/06/28 05:09:53;;;;;;;39.33;34.42;;;;;;;12.77;100.00;163902.75;5010971;28;20053;-59
2022/06/28 05:12:18;;;;;;;38.90;34.67;;;;;;;12.86;100.00;163927.06;5011646;28;20092;-59
2022/06/28 05:14:43;;;;;;;39.75;34.00;;;;;;;12.94;100.00;163948.69;5010430;28;20116;-58
2022/06/28 05:17:09;;;;;;;39.28;33.45;;;;;;;13.02;100.00;163970.31;5012375;28;20489;-59
2022/06/28 05:19:35;;;;;;;40.40;35.03;;;;;;;13.15;100.00;164002.75;5012705;28;20490;-58
2022/06/28 05:22:00;;;;;;;38.22;31.33;;;;;;;13.17;100.00;164008.19;5010227;28;20048;-58
2022/06/28 05:24:26;;;;;;;37.05;31.48;;;;;;;13.26;100.00;164032.53;5012400;28;20022;-59
2022/06/28 05:26:51;;;;;;;34.80;31.13;;;;;;;13.28;100.00;164037.94;5010890;28;20050;-59
2022/06/28 05:29:16;;;;;;;37.15;32.63;;;;;;;13.42;100.00;164073.13;5011878;28;20072;-59
2022/06/28 05:31:42;;;;;;;33.35;29.85;;;;;;;13.47;100.00;164088.03;5010810;28;20501;-58
2022/06/28 05:34:07;;;;;;;33.42;29.85;;;;;;;13.52;100.00;164100.16;5011997;28;20505;-58
2022/06/28 05:36:33;;;;;;;32.33;29.00;;;;;;;13.64;100.00;164132.63;5010314;28;20061;-58
2022/06/28 05:38:58;;;;;;;32.22;28.85;;;;;;;13.68;100.00;164140.72;5011426;28;20474;-58
2022/06/28 05:41:23;;;;;;;32.03;28.25;;;;;;;13.78;100.00;164167.78;5010664;28;20119;-58
2022/06/28 05:43:49;;;;;;;29.02;26.02;;;;;;;13.90;100.00;164198.91;5011848;28;20036;-58
2022/06/28 05:46:14;;;;;;;30.27;27.02;;;;;;;13.95;100.00;164213.78;5010222;28;20034;-58
2022/06/28 05:48:40;;;;;;;31.73;26.02;;;;;;;14.00;100.00;164224.59;5012094;28;20030;-57
2022/06/28 05:51:05;;;;;;;33.40;28.08;;;;;;;14.08;100.00;164247.56;5009967;28;20041;-58
2022/06/28 05:53:30;;;;;;;28.80;25.80;;;;;;;14.16;100.00;164267.88;5011975;28;20025;-58
2022/06/28 05:55:56;;;;;;;31.23;25.65;;;;;;;14.26;100.00;164294.91;5010099;28;20046;-59
2022/06/28 05:58:21;;;;;;;31.02;26.50;;;;;;;14.33;100.00;164312.53;5011655;28;20030;-58
2022/06/28 06:00:47;;;;;;;28.90;25.98;;;;;;;14.39;100.00;164327.41;5010395;28;20045;-58
2022/06/28 06:03:13;;;;;;;29.13;26.15;;;;;;;14.51;100.00;164358.53;5011481;28;20064;-58
2022/06/28 06:05:38;;;;;;;30.08;27.15;;;;;;;14.50;100.00;164357.16;5009837;28;20305;-58
2022/06/28 06:08:04;;;;;;;27.95;25.17;;;;;;;14.59;100.00;164381.53;5011480;28;20014;-58
2022/06/28 06:10:29;;;;;;;29.15;24.67;;;;;;;14.77;100.00;164427.59;5010213;28;20538;-58
2022/06/28 06:12:54;;;;;;;30.30;25.23;;;;;;;14.90;100.00;164461.38;5011144;28;20033;-59
2022/06/28 06:15:20;;;;;;;25.08;22.73;;;;;;;15.02;100.00;164493.91;5010202;28;20512;-58
2022/06/28 06:17:46;;;;;;;23.80;21.50;;;;;;;15.14;100.00;164525.03;5011875;28;20099;-59
2022/06/28 06:20:11;;;;;;;26.02;23.63;;;;;;;15.36;100.00;157464.13;5009538;28;20076;-57
2022/06/28 06:22:37;;;;;;;25.08;22.38;;;;;;;15.63;100.00;152552.03;5011262;28;20424;-57
2022/06/28 06:25:03;;;;;;;30.38;22.17;;;;;;;15.75;100.00;149383.53;5009875;28;20713;-57
2022/06/28 06:27:28;;;;;;;28.42;23.75;;;;;;;15.95;100.00;150851.84;5010928;28;20069;-57
2022/06/28 06:29:53;;;;;;;24.42;22.13;;;;;;;16.12;100.00;148405.47;5009363;28;20017;-58
2022/06/28 06:32:19;;;;;;;24.65;22.25;;;;;;;16.28;100.00;142759.53;5011100;28;20041;-57
2022/06/28 06:34:46;;;;;;;21.38;19.27;;;;;;;16.53;100.00;140329.28;5009164;28;20102;-58
2022/06/28 06:37:11;;;;;;;17.45;15.57;;;;;;;16.53;100.00;157401.44;5010854;28;20014;-57
2022/06/28 06:39:36;;;;;;;20.10;17.23;;;;;;;16.81;100.00;164962.47;5011247;28;20026;-58
2022/06/28 06:42:02;;;;;;;16.80;15.07;;;;;;;17.07;100.00;165031.63;5009066;28;20038;-56
2022/06/28 06:44:27;;;;;;;19.42;14.00;;;;;;;17.26;100.00;165080.38;5011044;28;20071;-58
2022/06/28 06:46:53;;;;;;;17.98;15.18;;;;;;;17.35;100.00;165104.78;5009806;28;20041;-58
2022/06/28 06:49:18;;;;;;;16.45;14.25;;;;;;;17.46;100.00;165131.91;5010695;28;20084;-58
2022/06/28 06:51:44;;;;;;;18.85;12.05;;;;;;;17.60;100.00;165171.19;5009431;28;20049;-58
2022/06/28 06:54:11;;;;;;;14.98;13.52;;;;;;;17.73;100.00;165203.72;5010785;28;20100;-59
2022/06/28 06:56:38;;;;;;;17.75;12.65;;;;;;;17.67;100.00;165188.84;5009134;28;20497;-58
2022/06/28 06:59:04;;;;;;;16.15;12.57;;;;;;;17.85;100.00;165234.88;5010993;28;20037;-56
2022/06/28 07:01:32;;;;;;;11.70;9.88;;;;;;;17.94;100.00;165259.31;5009371;28;20122;-58
2022/06/28 07:03:58;;;;;;;;;;;;;;;18.12;100.00;165305.47;5010781;28;20048;-59
2022/06/28 07:06:23;;;;;;;15.18;10.25;;;;;;;18.16;100.00;165316.28;5005404;28;19959;-56
2022/06/28 07:08:49;;;;;;;16.50;8.10;;;;;;;18.24;100.00;165338.00;5005837;28;20049;-56
2022/06/28 07:11:14;;;;;;;13.75;8.25;;;;;;;18.35;100.00;165366.47;5008099;28;20049;-56
2022/06/28 07:13:39;;;;;;;12.27;9.35;;;;;;;18.49;100.00;165403.09;5008848;28;20556;-58
2022/06/28 07:16:06;;;;;;;12.68;7.30;;;;;;;18.52;100.00;165411.19;5007822;28;20034;-58
2022/06/28 07:18:31;;;;;;;18.35;7.75;;;;;;;18.53;100.00;165415.31;5007873;28;20030;-58
2022/06/28 07:20:57;;;;;;;9.07;7.13;;;;;;;18.58;100.00;165427.47;5007378;28;20045;-58
2022/06/28 07:23:23;;;;;;;12.30;6.57;;;;;;;18.60;100.00;165432.91;5009527;28;20030;-59
2022/06/28 07:25:48;;;;;;;11.15;6.60;;;;;;;18.70;100.00;165460.03;5008478;28;20041;-58
2022/06/28 07:28:13;;;;;;;8.00;6.10;;;;;;;18.79;100.00;165481.75;5007153;28;20493;-58
2022/06/28 07:30:39;;;;;;;8.00;6.30;;;;;;;18.89;100.00;165508.84;4998749;28;20440;-56
2022/06/28 07:33:04;;;;;;;8.25;4.05;;;;;;;19.11;100.00;165567.25;5010024;28;20033;-56
2022/06/28 07:35:30;;;;;;;6.45;4.97;;;;;;;19.14;100.00;165574.03;5014552;28;20045;-56
2022/06/28 07:37:55;;;;;;;8.63;5.97;;;;;;;19.03;100.00;165545.53;5026608;28;20501;-57
2022/06/28 07:40:21;;;;;;;9.50;5.50;;;;;;;18.96;100.00;165527.88;5024317;28;20048;-56
2022/06/28 07:42:46;;;;;;;5.03;4.55;;;;;;;19.09;100.00;165560.47;5009868;28;20389;-56
2022/06/28 07:45:13;;;;;;;7.35;3.83;;;;;;;19.15;100.00;165576.75;5008726;28;20099;-56
2022/06/28 07:47:38;;;;;;;6.25;4.18;;;;;;;19.17;100.00;165583.50;5010354;28;20014;-55
2022/06/28 07:52:48;;;;;;;25.40;3.80;;;;;;;19.49;100.00;165666.25;5010420;28;20096;-56
2022/06/28 07:55:13;;;;;;;15.23;4.72;;;;;;;19.69;100.00;165717.84;5008523;28;20041;-56
2022/06/28 07:57:39;;;;;;;4.65;1.98;;;;;;;19.70;100.00;165720.53;5009428;28;20405;-56
2022/06/28 08:00:06;;;;;;;3.65;2.20;;;;;;;19.46;100.00;165658.16;5008666;28;20176;-56
2022/06/28 08:02:31;;;;;;;8.85;3.35;;;;;;;19.56;100.00;165685.25;5011076;28;20408;-56
2022/06/28 08:04:57;;;;;;;6.10;4.00;;;;;;;19.83;100.00;165755.84;5012144;28;20033;-56
2022/06/28 08:07:22;;;;;;;7.93;3.92;;;;;;;20.03;100.00;165807.44;5013918;28;20041;-56
2022/06/28 08:09:48;;;;;;;5.93;3.95;;;;;;;20.35;100.00;165892.94;5012406;28;20018;-56
2022/06/28 08:12:14;;;;;;;5.85;3.53;;;;;;;20.54;100.00;165943.19;5013299;28;20022;-56
2022/06/28 08:14:39;;;;;;;7.60;3.85;;;;;;;20.67;100.00;165975.75;5012290;28;20366;-55
2022/06/28 08:17:05;;;;;;;8.48;3.08;;;;;;;20.92;100.00;166043.69;5013815;28;20022;-56
2022/06/28 08:19:30;;;;;;;10.68;2.65;;;;;;;21.07;100.00;166081.72;5013503;28;20477;-56
2022/06/28 08:21:55;;;;;;;6.32;2.92;;;;;;;21.27;100.00;166133.31;5012209;28;20077;-56
2022/06/28 08:24:21;;;;;;;5.35;3.10;;;;;;;21.24;100.00;166127.91;5013682;28;20034;-55
2022/06/28 08:26:46;;;;;;;9.20;3.25;;;;;;;21.20;100.00;166117.00;5011917;28;20413;-56
2022/06/28 08:29:16;;;;;;;4.03;2.35;;;;;;;21.39;100.00;166165.94;5013132;28;20080;-56
2022/06/28 08:31:44;;;;;;;3.15;2.03;;;;;;;20.91;100.00;166040.97;5011972;28;20038;-58
2022/06/28 08:34:10;;;;;;;6.60;3.57;;;;;;;21.09;100.00;166087.16;5012875;28;20486;-58
2022/06/28 08:36:36;;;;;;;5.80;3.65;;;;;;;21.13;100.00;166098.00;5011905;28;20100;-58
2022/06/28 08:39:03;;;;;;;7.90;2.92;;;;;;;21.16;100.00;166106.16;5013391;28;20025;-58
2022/06/28 08:41:31;;;;;;;4.20;3.03;;;;;;;20.92;100.00;166043.69;5011390;28;20117;-56
2022/06/28 08:43:57;;;;;;;3.78;2.45;;;;;;;21.01;100.00;166065.44;5013164;28;20460;-56
2022/06/28 08:46:24;;;;;;;5.00;2.90;;;;;;;20.91;100.00;166040.97;5011773;28;20099;-56
2022/06/28 08:48:59;;;;;;;5.75;2.92;;;;;;;21.07;100.00;166081.72;5012855;28;20504;-56
2022/06/28 08:51:30;;;;;;;4.43;3.13;;;;;;;21.24;100.00;166127.91;5011739;28;20168;-56
2022/06/28 08:53:59;;;;;;;4.30;2.05;;;;;;;21.30;100.00;166141.47;5012898;28;20488;-62
2022/06/28 08:56:24;;;;;;;3.92;1.80;;;;;;;21.45;100.00;166182.22;5011332;28;20042;-56
2022/06/28 08:58:50;;;;;;;5.03;1.95;;;;;;;21.64;100.00;166231.13;5010493;28;20029;-56
2022/06/28 09:01:15;;;;;;;4.22;1.77;;;;;;;21.75;100.00;166259.66;4995741;28;20042;-55
2022/06/28 09:03:41;;;;;;;4.25;2.22;;;;;;;21.87;100.00;166293.63;5008332;28;20084;-56
2022/06/28 09:06:06;;;;;;;4.13;1.92;;;;;;;22.05;100.00;166339.84;5010932;28;20057;-56
2022/06/28 09:08:32;;;;;;;4.95;1.30;;;;;;;22.22;100.00;166383.31;5012788;28;20026;-56
2022/06/28 09:10:58;;;;;;;2.85;1.48;;;;;;;22.42;100.00;166437.72;5010505;28;20038;-56
2022/06/28 09:13:24;;;;;;;3.15;1.63;;;;;;;21.96;100.00;166315.38;5011722;28;20473;-55
2022/06/28 09:15:58;;;;;;;7.22;1.88;;;;;;;22.61;100.00;166486.63;5010353;28;20045;-56
2022/06/28 09:18:26;;;;;;;4.63;1.45;;;;;;;22.68;100.00;166505.63;5012066;28;20026;-56
2022/06/28 09:20:55;;;;;;;3.53;1.67;;;;;;;23.07;100.00;166608.94;5010967;28;20107;-56
2022/06/28 09:23:29;;;;;;;8.40;1.80;;;;;;;23.14;100.00;166627.97;5012194;28;20480;-56
2022/06/28 09:25:57;;;;;;;5.07;1.33;;;;;;;22.92;100.00;166568.16;5010237;28;20420;-56
2022/06/28 09:28:29;;;;;;;4.65;2.15;;;;;;;22.78;100.00;166532.84;5012351;28;20018;-56
2022/06/28 09:31:16;;;;;;;5.25;1.75;;;;;;;22.86;100.00;166551.88;5010521;28;20120;-56
2022/06/28 09:33:43;;;;;;;7.88;2.33;;;;;;;23.19;100.00;166640.25;5012030;28;20029;-56
2022/06/28 09:36:14;;;;;;;3.60;2.17;;;;;;;23.26;100.00;166657.94;5010586;28;20126;-57
2022/06/28 09:38:39;;;;;;;2.05;1.15;;;;;;;23.35;100.00;166682.38;5012068;28;20021;-56
2022/06/28 09:41:19;;;;;;;4.75;1.33;;;;;;;23.51;100.00;166723.19;5010237;28;20149;-56
2022/06/28 09:43:53;;;;;;;2.13;1.45;;;;;;;23.45;100.00;166709.59;5011991;28;20109;-56
2022/06/28 09:46:19;;;;;;;5.78;1.50;;;;;;;23.30;100.00;166668.81;5010728;28;20038;-56
2022/06/28 09:48:44;;;;;;;5.40;1.67;;;;;;;23.00;100.00;166589.91;5011769;28;20033;-56
2022/06/28 09:51:10;;;;;;;2.83;1.60;;;;;;;22.98;100.00;166584.47;5010412;28;20470;-56
2022/06/28 09:53:43;;;;;;;5.28;1.77;;;;;;;22.86;100.00;166551.88;5011892;28;20076;-56
2022/06/28 09:56:09;;;;;;;2.90;1.40;;;;;;;22.79;100.00;166534.16;5009993;28;20077;-56
2022/06/28 09:58:35;;;;;;;5.63;1.50;;;;;;;22.76;100.00;166527.38;5011860;28;20113;-56
2022/06/28 10:01:01;;;;;;;5.72;0.93;;;;;;;22.77;100.00;166528.78;5010177;28;20034;-56
2022/06/28 10:03:26;;;;;;;4.07;2.22;;;;;;;22.73;100.00;166519.25;5011437;28;20055;-56
2022/06/28 10:05:54;;;;;;;5.22;1.27;;;;;;;22.55;100.00;166470.31;5010323;28;20127;-56
2022/06/28 10:08:21;;;;;;;5.88;3.28;;;;;;;21.75;100.00;166261.03;4997828;28;20026;-56
2022/06/28 10:10:46;;;;;;;4.13;1.63;;;;;;;22.36;100.00;166421.38;4990084;28;20046;-56
2022/06/28 10:16:16;;;;;;;8.20;2.40;;;;;;;22.84;100.00;166546.41;4990517;28;20108;-56
2022/06/28 10:18:43;;;;;;;6.07;1.70;;;;;;;23.14;100.00;166626.63;5005276;28;20492;-56
2022/06/28 10:21:08;;;;;;;1.92;1.20;;;;;;;23.18;100.00;166636.19;5005553;28;20464;-56
2022/06/28 10:23:37;;;;;;;2.08;1.65;;;;;;;23.08;100.00;166610.34;4999105;28;20025;-56
2022/06/28 10:26:08;;;;;;;8.95;2.95;;;;;;;23.26;100.00;166657.94;5005341;28;20034;-56
2022/06/28 10:28:46;;;;;;;7.30;1.88;;;;;;;23.40;100.00;166696.00;5003174;28;20455;-56
2022/06/28 10:31:23;;;;;;;3.63;1.52;;;;;;;23.57;100.00;166739.47;5004399;28;20046;-56
2022/06/28 10:33:50;;;;;;;3.70;1.80;;;;;;;23.10;100.00;166617.13;4994653;28;20140;-57
2022/06/28 10:36:18;;;;;;;2.60;1.70;;;;;;;23.04;100.00;166600.81;4993250;28;20128;-56
2022/06/28 10:39:06;;;;;;;14.55;3.15;;;;;;;23.19;100.00;166638.94;5010221;28;20056;-57
2022/06/28 10:42:07;;;;;;;;;;;;;;;23.64;100.00;166758.56;5008453;28;20041;-57
2022/06/28 10:44:32;;;;;;;17.98;10.93;;;;;;;23.12;100.00;166622.53;4987816;28;19920;-57
2022/06/28 10:47:00;;;;;;;2.65;1.85;;;;;;;22.93;100.00;166572.28;4970579;28;20130;-57
2022/06/28 10:49:26;;;;;;;3.55;1.25;;;;;;;23.51;100.00;166723.19;4977744;28;20038;-57
2022/06/28 10:52:08;;;;;;;2.95;1.40;;;;;;;23.50;100.00;166720.44;4988306;28;20038;-57
2022/06/28 10:54:34;;;;;;;3.67;1.88;;;;;;;23.65;100.00;166761.25;4990672;28;20030;-57
2022/06/28 10:57:00;;;;;;;3.95;1.80;;;;;;;23.09;100.00;166614.38;5008282;28;20050;-57
2022/06/28 10:59:38;;;;;;;4.45;1.52;;;;;;;22.56;100.00;166474.44;5010339;28;20021;-57
2022/06/28 11:02:03;;;;;;;5.00;1.83;;;;;;;22.21;100.00;166381.94;5008402;28;20066;-57
2022/06/28 11:04:30;;;;;;;3.85;1.50;;;;;;;21.96;100.00;166315.38;5010582;28;20061;-57
2022/06/28 11:07:17;;;;;;;5.50;2.85;;;;;;;22.00;100.00;166326.28;5008742;28;20121;-56
2022/06/28 11:10:06;;;;;;;4.70;1.83;;;;;;;22.59;100.00;166481.22;5008643;28;20092;-56
2022/06/28 11:12:38;;;;;;;6.05;2.65;;;;;;;23.40;100.00;166696.00;5010508;28;20105;-57
2022/06/28 11:15:10;;;;;;;5.13;1.90;;;;;;;23.24;100.00;166652.50;5008889;28;20120;-57
2022/06/28 11:17:39;;;;;;;7.00;3.35;;;;;;;23.44;100.00;166706.88;5009953;28;20476;-57